TAX73JC EDDH-BIKF
Flight info
| Callsign | TAX73JC |
|---|---|
| Flight time | N/A |
| Altitude | 34000 |
| Route | ELSOB3C ELSOB Y348 OMWEG DCT BADOS DCT IPSUB DCT VAXIT DCT ARTEX DCT LAMRO DCT NALAN/M083F340 DCT ALDAN DCT ASRUN ASRUN4N |
| Aircraft | B77L/H-SDE1E2E3FGHIJ2J3J4J5M1RWXY/LB1D1 |
Departure
| Time | 2026-05-05 13:06 |
|---|---|
| Airport | Hamburg Helmut Schmidt Airport (EDDH) |
Arrival
| Time | N/A |
|---|---|
| Airport | Keflavik International Airport (BIKF) |
| Time | Latitude | Longitude | Altitude | Speed | Heading |
|---|---|---|---|---|---|
| 2026-05-05 12:27 | 53.62748 | 9.99178 | 51 ft | 0 kts | 62° |
| 2026-05-05 12:54 | 53.62740 | 9.99151 | 48 ft | 4 kts | 68° |
| 2026-05-05 12:55 | 53.62732 | 9.99107 | 44 ft | 4 kts | 81° |
| 2026-05-05 12:55 | 53.62731 | 9.99063 | 44 ft | 4 kts | 98° |
| 2026-05-05 12:55 | 53.62738 | 9.99021 | 45 ft | 4 kts | 127° |
| 2026-05-05 12:55 | 53.62750 | 9.99002 | 44 ft | 0 kts | 153° |
| 2026-05-05 12:58 | 53.62736 | 9.99014 | 44 ft | 6 kts | 153° |
| 2026-05-05 12:58 | 53.62683 | 9.99059 | 48 ft | 10 kts | 153° |
| 2026-05-05 12:58 | 53.62624 | 9.99111 | 47 ft | 10 kts | 153° |
| 2026-05-05 12:58 | 53.62579 | 9.99212 | 48 ft | 14 kts | 93° |
| 2026-05-05 12:59 | 53.62596 | 9.99389 | 46 ft | 16 kts | 79° |
| 2026-05-05 12:59 | 53.62617 | 9.99568 | 50 ft | 16 kts | 79° |
| 2026-05-05 12:59 | 53.62631 | 9.99695 | 51 ft | 7 kts | 79° |
| 2026-05-05 13:00 | 53.62632 | 9.99703 | 51 ft | 0 kts | 79° |
| 2026-05-05 13:01 | 53.62633 | 9.99719 | 51 ft | 5 kts | 79° |
| 2026-05-05 13:01 | 53.62649 | 9.99844 | 50 ft | 14 kts | 75° |
| 2026-05-05 13:02 | 53.62692 | 9.99895 | 50 ft | 6 kts | 342° |
| 2026-05-05 13:02 | 53.62714 | 9.99878 | 50 ft | 0 kts | 333° |
| 2026-05-05 13:05 | 53.62823 | 9.99784 | 50 ft | 42 kts | 333° |
| 2026-05-05 13:05 | 53.63295 | 9.99375 | 50 ft | 108 kts | 333° |
| 2026-05-05 13:06 | 53.64132 | 9.98652 | 49 ft | 160 kts | 332° |
| 2026-05-05 13:06 | 53.65220 | 9.97703 | 252 ft | 182 kts | 335° |
| 2026-05-05 13:06 | 53.66370 | 9.96725 | 674 ft | 187 kts | 337° |
| 2026-05-05 13:06 | 53.67532 | 9.95742 | 1200 ft | 191 kts | 337° |
| 2026-05-05 13:07 | 53.68787 | 9.94681 | 1415 ft | 212 kts | 335° |
| 2026-05-05 13:07 | 53.70132 | 9.93396 | 1623 ft | 234 kts | 322° |
| 2026-05-05 13:07 | 53.71098 | 9.91119 | 2071 ft | 248 kts | 289° |
| 2026-05-05 13:07 | 53.71215 | 9.88224 | 2682 ft | 254 kts | 260° |
| 2026-05-05 13:08 | 53.70715 | 9.85368 | 3370 ft | 252 kts | 252° |
| 2026-05-05 13:08 | 53.70155 | 9.82587 | 4197 ft | 249 kts | 252° |
| 2026-05-05 13:08 | 53.69605 | 9.79845 | 5015 ft | 244 kts | 252° |
| 2026-05-05 13:08 | 53.69053 | 9.77098 | 5551 ft | 252 kts | 252° |
| 2026-05-05 13:09 | 53.68489 | 9.74255 | 6110 ft | 259 kts | 252° |
| 2026-05-05 13:09 | 53.67916 | 9.71336 | 6661 ft | 266 kts | 252° |
| 2026-05-05 13:09 | 53.67334 | 9.68360 | 7294 ft | 267 kts | 252° |
| 2026-05-05 13:09 | 53.66761 | 9.65388 | 8010 ft | 266 kts | 255° |
| 2026-05-05 13:10 | 53.66631 | 9.62271 | 8443 ft | 273 kts | 282° |
| 2026-05-05 13:10 | 53.67441 | 9.59375 | 9060 ft | 278 kts | 309° |
| 2026-05-05 13:10 | 53.68955 | 9.57335 | 9688 ft | 285 kts | 332° |
| 2026-05-05 13:10 | 53.70884 | 9.56420 | 9959 ft | 295 kts | 349° |
| 2026-05-05 13:11 | 53.72905 | 9.55954 | 9927 ft | 297 kts | 350° |
| 2026-05-05 13:11 | 53.74945 | 9.55526 | 9930 ft | 294 kts | 351° |
| 2026-05-05 13:11 | 53.76964 | 9.55105 | 9936 ft | 291 kts | 350° |
| 2026-05-05 13:11 | 53.78972 | 9.54673 | 9930 ft | 290 kts | 350° |
| 2026-05-05 13:12 | 53.80973 | 9.54231 | 9926 ft | 289 kts | 350° |
| 2026-05-05 13:12 | 53.82962 | 9.53783 | 9930 ft | 288 kts | 350° |
| 2026-05-05 13:12 | 53.84951 | 9.53328 | 9952 ft | 290 kts | 349° |
| 2026-05-05 13:12 | 53.87013 | 9.52848 | 10093 ft | 309 kts | 349° |
| 2026-05-05 13:13 | 53.89217 | 9.52333 | 10279 ft | 330 kts | 349° |
| 2026-05-05 13:13 | 53.91599 | 9.51777 | 10439 ft | 352 kts | 349° |
| 2026-05-05 13:13 | 53.94087 | 9.51196 | 10736 ft | 368 kts | 349° |
| 2026-05-05 13:13 | 53.96663 | 9.50594 | 11315 ft | 377 kts | 349° |
| 2026-05-05 13:14 | 53.99257 | 9.49769 | 12006 ft | 381 kts | 342° |
| 2026-05-05 13:14 | 54.01758 | 9.48297 | 12865 ft | 381 kts | 334° |
| 2026-05-05 13:14 | 54.04131 | 9.46281 | 13706 ft | 382 kts | 327° |
| 2026-05-05 13:14 | 54.06438 | 9.43991 | 14410 ft | 386 kts | 326° |
| 2026-05-05 13:15 | 54.08756 | 9.41664 | 15154 ft | 389 kts | 326° |
| 2026-05-05 13:15 | 54.11092 | 9.39320 | 15926 ft | 391 kts | 326° |
| 2026-05-05 13:15 | 54.13450 | 9.36964 | 16686 ft | 394 kts | 326° |
| 2026-05-05 13:15 | 54.15834 | 9.34592 | 17288 ft | 400 kts | 326° |
| 2026-05-05 13:16 | 54.18257 | 9.32186 | 17941 ft | 405 kts | 326° |
| 2026-05-05 13:16 | 54.20700 | 9.29758 | 18595 ft | 408 kts | 326° |
| 2026-05-05 13:16 | 54.23157 | 9.27314 | 19255 ft | 410 kts | 326° |
| 2026-05-05 13:16 | 54.25630 | 9.24850 | 19887 ft | 412 kts | 326° |
| 2026-05-05 13:17 | 54.28116 | 9.22375 | 20495 ft | 415 kts | 326° |
| 2026-05-05 13:17 | 54.30624 | 9.19876 | 21078 ft | 419 kts | 325° |
| 2026-05-05 13:17 | 54.33149 | 9.17355 | 21662 ft | 422 kts | 325° |
| 2026-05-05 13:17 | 54.35636 | 9.14684 | 22247 ft | 422 kts | 320° |
| 2026-05-05 13:18 | 54.37944 | 9.11578 | 22830 ft | 422 kts | 315° |
| 2026-05-05 13:18 | 54.40054 | 9.08079 | 23403 ft | 422 kts | 309° |
| 2026-05-05 13:18 | 54.42054 | 9.04372 | 23859 ft | 426 kts | 309° |
| 2026-05-05 13:18 | 54.44083 | 9.00587 | 24126 ft | 435 kts | 309° |
| 2026-05-05 13:19 | 54.46146 | 8.96759 | 24571 ft | 437 kts | 309° |
| 2026-05-05 13:19 | 54.48213 | 8.92909 | 25090 ft | 439 kts | 309° |
| 2026-05-05 13:19 | 54.50289 | 8.89046 | 25569 ft | 441 kts | 309° |
| 2026-05-05 13:19 | 54.52387 | 8.85149 | 25992 ft | 445 kts | 309° |
| 2026-05-05 13:20 | 54.54498 | 8.81230 | 26402 ft | 449 kts | 309° |
| 2026-05-05 13:20 | 54.56632 | 8.77270 | 26817 ft | 452 kts | 309° |
| 2026-05-05 13:20 | 54.58778 | 8.73284 | 27243 ft | 455 kts | 309° |
| 2026-05-05 13:20 | 54.60939 | 8.69261 | 27657 ft | 458 kts | 309° |
| 2026-05-05 13:21 | 54.63111 | 8.65211 | 28059 ft | 461 kts | 309° |
| 2026-05-05 13:21 | 54.65299 | 8.61122 | 28402 ft | 466 kts | 309° |
| 2026-05-05 13:21 | 54.67506 | 8.56989 | 28723 ft | 470 kts | 309° |
| 2026-05-05 13:21 | 54.69725 | 8.52826 | 29112 ft | 472 kts | 309° |
| 2026-05-05 13:22 | 54.71924 | 8.48694 | 29511 ft | 474 kts | 309° |
| 2026-05-05 13:22 | 54.74154 | 8.44498 | 29950 ft | 474 kts | 309° |
| 2026-05-05 13:22 | 54.76381 | 8.40301 | 30401 ft | 473 kts | 309° |
| 2026-05-05 13:22 | 54.78601 | 8.36111 | 30849 ft | 471 kts | 309° |
| 2026-05-05 13:23 | 54.80809 | 8.31933 | 31269 ft | 469 kts | 309° |
| 2026-05-05 13:23 | 54.83008 | 8.27764 | 31672 ft | 469 kts | 309° |
| 2026-05-05 13:23 | 54.85204 | 8.23594 | 32041 ft | 468 kts | 309° |
| 2026-05-05 13:23 | 54.87398 | 8.19420 | 32423 ft | 467 kts | 309° |
| 2026-05-05 13:24 | 54.89584 | 8.15255 | 32803 ft | 466 kts | 309° |
| 2026-05-05 13:24 | 54.91763 | 8.11093 | 33148 ft | 466 kts | 309° |
| 2026-05-05 13:24 | 54.93885 | 8.07035 | 33483 ft | 465 kts | 309° |
| 2026-05-05 13:24 | 54.96060 | 8.02870 | 33838 ft | 464 kts | 309° |
| 2026-05-05 13:25 | 55.00429 | 7.94483 | 33970 ft | 469 kts | 309° |
| 2026-05-05 13:25 | 55.04888 | 7.86299 | 33980 ft | 460 kts | 310° |
| 2026-05-05 13:26 | 55.09330 | 7.78338 | 33988 ft | 458 kts | 310° |
| 2026-05-05 13:26 | 55.13759 | 7.70335 | 33987 ft | 458 kts | 310° |
| 2026-05-05 13:27 | 55.18173 | 7.62286 | 33986 ft | 459 kts | 310° |
| 2026-05-05 13:27 | 55.22586 | 7.54194 | 33988 ft | 460 kts | 310° |
| 2026-05-05 13:28 | 55.26997 | 7.46074 | 33990 ft | 460 kts | 310° |
| 2026-05-05 13:28 | 55.31415 | 7.37920 | 34021 ft | 461 kts | 309° |
| 2026-05-05 13:29 | 55.35732 | 7.29923 | 33989 ft | 458 kts | 309° |
| 2026-05-05 13:29 | 55.40096 | 7.21814 | 33988 ft | 455 kts | 309° |
| 2026-05-05 13:30 | 55.44433 | 7.13726 | 33992 ft | 452 kts | 309° |
| 2026-05-05 13:30 | 55.48734 | 7.05675 | 33996 ft | 450 kts | 309° |
| 2026-05-05 13:31 | 55.53016 | 6.97632 | 33994 ft | 450 kts | 309° |
| 2026-05-05 13:31 | 55.57291 | 6.89575 | 33999 ft | 450 kts | 309° |
| 2026-05-05 13:32 | 55.61574 | 6.81476 | 34012 ft | 451 kts | 309° |
| 2026-05-05 13:32 | 55.65852 | 6.73360 | 34006 ft | 451 kts | 308° |
| 2026-05-05 13:33 | 55.70126 | 6.65223 | 34006 ft | 451 kts | 308° |
| 2026-05-05 13:33 | 55.74393 | 6.57071 | 33998 ft | 451 kts | 308° |
| 2026-05-05 13:34 | 55.78630 | 6.48950 | 33999 ft | 450 kts | 308° |
| 2026-05-05 13:34 | 55.82906 | 6.40724 | 34003 ft | 450 kts | 308° |
| 2026-05-05 13:35 | 55.87145 | 6.32542 | 34003 ft | 450 kts | 308° |
| 2026-05-05 13:35 | 55.91376 | 6.24346 | 34003 ft | 449 kts | 308° |
| 2026-05-05 13:36 | 55.95579 | 6.16176 | 34005 ft | 449 kts | 308° |
| 2026-05-05 13:36 | 55.99828 | 6.07890 | 33999 ft | 450 kts | 308° |
| 2026-05-05 13:37 | 56.04043 | 5.99639 | 34000 ft | 450 kts | 308° |
| 2026-05-05 13:37 | 56.08253 | 5.91370 | 34001 ft | 450 kts | 308° |
| 2026-05-05 13:38 | 56.12464 | 5.83068 | 34002 ft | 450 kts | 308° |
| 2026-05-05 13:38 | 56.16636 | 5.74816 | 34000 ft | 450 kts | 308° |
| 2026-05-05 13:39 | 56.20834 | 5.66483 | 34014 ft | 451 kts | 308° |
| 2026-05-05 13:39 | 56.24977 | 5.58231 | 34008 ft | 450 kts | 308° |
| 2026-05-05 13:40 | 56.29151 | 5.49888 | 34010 ft | 450 kts | 307° |
| 2026-05-05 13:40 | 56.33327 | 5.41511 | 34014 ft | 449 kts | 307° |
| 2026-05-05 13:41 | 56.37493 | 5.33124 | 34004 ft | 449 kts | 307° |
| 2026-05-05 13:41 | 56.41649 | 5.24726 | 34010 ft | 449 kts | 307° |
| 2026-05-05 13:42 | 56.45799 | 5.16310 | 34015 ft | 448 kts | 307° |
| 2026-05-05 13:42 | 56.49949 | 5.07869 | 34010 ft | 448 kts | 307° |
| 2026-05-05 13:43 | 56.54001 | 4.99338 | 34007 ft | 445 kts | 303° |
| 2026-05-05 13:43 | 56.57355 | 4.90019 | 34014 ft | 440 kts | 298° |
| 2026-05-05 13:44 | 56.60598 | 4.80606 | 34013 ft | 440 kts | 298° |
| 2026-05-05 13:44 | 56.63324 | 4.72723 | 34014 ft | 440 kts | 298° |
| 2026-05-05 13:45 | 56.66578 | 4.63322 | 34023 ft | 440 kts | 298° |
| 2026-05-05 13:45 | 56.69814 | 4.53946 | 34021 ft | 440 kts | 298° |
| 2026-05-05 13:46 | 56.73061 | 4.44503 | 34019 ft | 440 kts | 298° |
| 2026-05-05 13:46 | 56.76304 | 4.35031 | 34016 ft | 441 kts | 298° |
| 2026-05-05 13:47 | 56.79543 | 4.25535 | 34020 ft | 441 kts | 298° |
| 2026-05-05 13:47 | 56.82776 | 4.16020 | 34026 ft | 440 kts | 298° |
| 2026-05-05 13:48 | 56.85990 | 4.06521 | 34017 ft | 439 kts | 298° |
| 2026-05-05 13:48 | 56.89192 | 3.97026 | 34029 ft | 439 kts | 298° |
| 2026-05-05 13:49 | 56.92380 | 3.87526 | 34031 ft | 438 kts | 298° |
| 2026-05-05 13:49 | 56.95563 | 3.78003 | 34029 ft | 438 kts | 298° |
| 2026-05-05 13:50 | 56.98732 | 3.68485 | 34030 ft | 438 kts | 298° |
| 2026-05-05 13:50 | 57.01905 | 3.58956 | 34031 ft | 438 kts | 299° |
| 2026-05-05 13:51 | 57.05651 | 3.50063 | 34035 ft | 444 kts | 309° |
| 2026-05-05 13:51 | 57.09880 | 3.41765 | 34044 ft | 444 kts | 308° |
| 2026-05-05 13:52 | 57.14055 | 3.33531 | 34040 ft | 442 kts | 308° |
| 2026-05-05 13:52 | 57.18227 | 3.25229 | 34032 ft | 441 kts | 308° |
| 2026-05-05 13:53 | 57.22372 | 3.16926 | 34037 ft | 439 kts | 308° |
| 2026-05-05 13:53 | 57.26499 | 3.08622 | 34046 ft | 439 kts | 308° |
| 2026-05-05 13:54 | 57.30623 | 3.00295 | 34044 ft | 438 kts | 308° |
| 2026-05-05 13:54 | 57.34736 | 2.91959 | 34093 ft | 439 kts | 308° |
| 2026-05-05 13:55 | 57.38881 | 2.83653 | 34058 ft | 439 kts | 308° |
| 2026-05-05 13:55 | 57.42987 | 2.75359 | 34047 ft | 436 kts | 307° |
| 2026-05-05 13:56 | 57.47026 | 2.66946 | 34054 ft | 436 kts | 307° |
| 2026-05-05 13:56 | 57.51074 | 2.58562 | 34055 ft | 436 kts | 307° |
| 2026-05-05 13:57 | 57.55132 | 2.50184 | 34058 ft | 436 kts | 307° |
| 2026-05-05 13:57 | 57.59194 | 2.41778 | 34058 ft | 436 kts | 307° |
| 2026-05-05 13:58 | 57.63248 | 2.33360 | 34110 ft | 436 kts | 307° |
| 2026-05-05 13:58 | 57.67299 | 2.24915 | 34065 ft | 437 kts | 307° |
| 2026-05-05 13:59 | 57.73359 | 2.12224 | 34059 ft | 435 kts | 307° |
| 2026-05-05 14:00 | 57.79359 | 1.99589 | 34064 ft | 434 kts | 307° |
| 2026-05-05 14:00 | 57.83358 | 1.91129 | 34069 ft | 433 kts | 307° |
| 2026-05-05 14:01 | 57.87348 | 1.82659 | 34066 ft | 433 kts | 307° |
| 2026-05-05 14:01 | 57.91329 | 1.74174 | 34072 ft | 433 kts | 307° |
| 2026-05-05 14:02 | 57.95317 | 1.65646 | 34084 ft | 434 kts | 306° |
| 2026-05-05 14:02 | 57.99293 | 1.57111 | 34073 ft | 434 kts | 306° |
| 2026-05-05 14:03 | 58.03262 | 1.48560 | 34074 ft | 433 kts | 306° |
| 2026-05-05 14:03 | 58.07224 | 1.39994 | 34076 ft | 433 kts | 306° |
| 2026-05-05 14:04 | 58.11180 | 1.31408 | 34074 ft | 433 kts | 306° |
| 2026-05-05 14:04 | 58.15128 | 1.22809 | 34079 ft | 433 kts | 306° |
| 2026-05-05 14:05 | 58.19079 | 1.14170 | 34078 ft | 434 kts | 306° |
| 2026-05-05 14:05 | 58.23029 | 1.05500 | 34075 ft | 435 kts | 306° |
| 2026-05-05 14:06 | 58.26979 | 0.96801 | 34085 ft | 435 kts | 306° |
| 2026-05-05 14:06 | 58.30921 | 0.88088 | 34080 ft | 435 kts | 306° |
| 2026-05-05 14:07 | 58.34860 | 0.79349 | 34079 ft | 434 kts | 306° |
| 2026-05-05 14:07 | 58.38780 | 0.70616 | 34084 ft | 434 kts | 306° |
| 2026-05-05 14:08 | 58.42692 | 0.61871 | 34073 ft | 433 kts | 306° |
| 2026-05-05 14:08 | 58.46594 | 0.53112 | 34079 ft | 433 kts | 306° |
| 2026-05-05 14:09 | 58.50498 | 0.44319 | 34094 ft | 434 kts | 306° |
| 2026-05-05 14:09 | 58.54412 | 0.35471 | 34080 ft | 432 kts | 306° |
| 2026-05-05 14:10 | 58.58249 | 0.26763 | 34079 ft | 431 kts | 305° |
| 2026-05-05 14:10 | 58.62091 | 0.18012 | 34086 ft | 429 kts | 305° |
| 2026-05-05 14:11 | 58.65927 | 0.09239 | 34094 ft | 429 kts | 305° |
| 2026-05-05 14:11 | 58.69752 | 0.00458 | 34090 ft | 429 kts | 305° |
| 2026-05-05 14:12 | 58.73579 | -0.08358 | 34092 ft | 429 kts | 305° |
| 2026-05-05 14:12 | 58.77396 | -0.17188 | 34086 ft | 429 kts | 305° |
| 2026-05-05 14:13 | 58.81217 | -0.26058 | 34091 ft | 430 kts | 305° |
| 2026-05-05 14:13 | 58.85033 | -0.34950 | 34091 ft | 430 kts | 305° |
| 2026-05-05 14:14 | 58.88848 | -0.43873 | 34092 ft | 431 kts | 305° |
| 2026-05-05 14:14 | 58.92660 | -0.52823 | 34094 ft | 431 kts | 305° |
| 2026-05-05 14:15 | 58.96473 | -0.61811 | 34092 ft | 431 kts | 305° |
| 2026-05-05 14:15 | 59.00275 | -0.70806 | 34092 ft | 431 kts | 304° |
| 2026-05-05 14:16 | 59.04070 | -0.79820 | 34129 ft | 431 kts | 304° |
| 2026-05-05 14:16 | 59.07856 | -0.88847 | 34099 ft | 430 kts | 304° |
| 2026-05-05 14:17 | 59.11628 | -0.97875 | 34092 ft | 429 kts | 304° |
| 2026-05-05 14:17 | 59.15348 | -1.06813 | 34096 ft | 427 kts | 304° |
| 2026-05-05 14:18 | 59.19075 | -1.15803 | 34094 ft | 426 kts | 304° |
| 2026-05-05 14:18 | 59.22788 | -1.24797 | 34096 ft | 425 kts | 304° |
| 2026-05-05 14:19 | 59.26501 | -1.33824 | 34097 ft | 426 kts | 304° |
| 2026-05-05 14:19 | 59.30206 | -1.42865 | 34103 ft | 427 kts | 304° |
| 2026-05-05 14:20 | 59.33916 | -1.51954 | 34113 ft | 428 kts | 304° |
| 2026-05-05 14:20 | 59.37631 | -1.61091 | 34091 ft | 429 kts | 304° |
| 2026-05-05 14:21 | 59.41370 | -1.70320 | 34111 ft | 428 kts | 304° |
| 2026-05-05 14:21 | 59.45044 | -1.79426 | 34108 ft | 428 kts | 304° |
| 2026-05-05 14:22 | 59.48731 | -1.88600 | 34115 ft | 427 kts | 304° |
| 2026-05-05 14:22 | 59.52415 | -1.97805 | 34109 ft | 427 kts | 304° |
| 2026-05-05 14:23 | 59.56065 | -2.06958 | 34116 ft | 427 kts | 304° |
| 2026-05-05 14:23 | 59.59725 | -2.16174 | 34134 ft | 427 kts | 304° |
| 2026-05-05 14:24 | 59.63384 | -2.25425 | 34113 ft | 427 kts | 304° |
| 2026-05-05 14:24 | 59.67036 | -2.34693 | 34106 ft | 427 kts | 304° |
| 2026-05-05 14:25 | 59.70688 | -2.43997 | 34114 ft | 427 kts | 304° |
| 2026-05-05 14:25 | 59.74326 | -2.53303 | 34111 ft | 427 kts | 303° |
| 2026-05-05 14:26 | 59.77956 | -2.62628 | 34101 ft | 427 kts | 303° |
| 2026-05-05 14:26 | 59.81579 | -2.71970 | 34114 ft | 427 kts | 303° |
| 2026-05-05 14:27 | 59.85202 | -2.81350 | 34120 ft | 427 kts | 303° |
| 2026-05-05 14:27 | 59.88821 | -2.90759 | 34121 ft | 429 kts | 304° |
| 2026-05-05 14:28 | 59.92441 | -3.00207 | 34122 ft | 429 kts | 303° |
| 2026-05-05 14:28 | 59.95448 | -3.08083 | 34120 ft | 429 kts | 303° |
| 2026-05-05 14:29 | 59.99055 | -3.17567 | 34124 ft | 429 kts | 303° |
| 2026-05-05 14:29 | 60.02680 | -3.27137 | 34123 ft | 429 kts | 303° |
| 2026-05-05 14:30 | 60.06254 | -3.36612 | 34111 ft | 429 kts | 303° |
| 2026-05-05 14:30 | 60.09837 | -3.46151 | 34127 ft | 429 kts | 303° |
| 2026-05-05 14:31 | 60.13417 | -3.55719 | 34178 ft | 429 kts | 303° |
| 2026-05-05 14:31 | 60.16977 | -3.65273 | 34134 ft | 430 kts | 303° |
| 2026-05-05 14:32 | 60.20554 | -3.74913 | 34129 ft | 430 kts | 303° |
| 2026-05-05 14:32 | 60.24123 | -3.84569 | 34134 ft | 430 kts | 303° |
| 2026-05-05 14:33 | 60.27705 | -3.94301 | 34133 ft | 429 kts | 303° |
| 2026-05-05 14:33 | 60.31230 | -4.03920 | 34115 ft | 429 kts | 303° |
| 2026-05-05 14:34 | 60.34771 | -4.13622 | 34133 ft | 429 kts | 303° |
| 2026-05-05 14:34 | 60.38303 | -4.23342 | 34135 ft | 429 kts | 303° |
| 2026-05-05 14:35 | 60.41833 | -4.33097 | 34144 ft | 431 kts | 303° |
| 2026-05-05 14:35 | 60.45367 | -4.42902 | 34144 ft | 431 kts | 303° |
| 2026-05-05 14:36 | 60.48895 | -4.52730 | 34132 ft | 431 kts | 303° |
| 2026-05-05 14:36 | 60.52416 | -4.62582 | 34142 ft | 431 kts | 303° |
| 2026-05-05 14:37 | 60.55931 | -4.72459 | 34141 ft | 431 kts | 302° |
| 2026-05-05 14:37 | 60.59436 | -4.82349 | 34127 ft | 431 kts | 302° |
| 2026-05-05 14:38 | 60.62910 | -4.92194 | 34142 ft | 431 kts | 302° |
| 2026-05-05 14:38 | 60.66397 | -5.02118 | 34197 ft | 431 kts | 302° |
| 2026-05-05 14:39 | 60.69890 | -5.12102 | 34145 ft | 432 kts | 302° |
| 2026-05-05 14:39 | 60.73375 | -5.22107 | 34145 ft | 433 kts | 302° |
| 2026-05-05 14:40 | 60.76858 | -5.32148 | 34145 ft | 433 kts | 302° |
| 2026-05-05 14:40 | 60.80335 | -5.42216 | 34141 ft | 433 kts | 302° |
| 2026-05-05 14:41 | 60.83800 | -5.52292 | 34137 ft | 432 kts | 302° |
| 2026-05-05 14:41 | 60.87256 | -5.62386 | 34140 ft | 432 kts | 302° |
| 2026-05-05 14:42 | 60.90700 | -5.72492 | 34145 ft | 432 kts | 302° |
| 2026-05-05 14:42 | 60.94147 | -5.82649 | 34163 ft | 434 kts | 302° |
| 2026-05-05 14:43 | 60.97600 | -5.92863 | 34155 ft | 435 kts | 302° |
| 2026-05-05 14:43 | 61.00769 | -6.03460 | 34154 ft | 433 kts | 294° |
| 2026-05-05 14:44 | 61.03197 | -6.14816 | 34151 ft | 433 kts | 292° |
| 2026-05-05 14:44 | 61.05591 | -6.26224 | 34138 ft | 433 kts | 292° |
| 2026-05-05 14:45 | 61.07991 | -6.37643 | 34145 ft | 433 kts | 292° |
| 2026-05-05 14:45 | 61.10389 | -6.49080 | 34149 ft | 434 kts | 292° |
| 2026-05-05 14:46 | 61.12780 | -6.60532 | 34150 ft | 434 kts | 292° |
| 2026-05-05 14:46 | 61.15161 | -6.72001 | 34156 ft | 434 kts | 292° |
| 2026-05-05 14:47 | 61.17533 | -6.83491 | 34170 ft | 435 kts | 292° |
| 2026-05-05 14:47 | 61.19885 | -6.94951 | 34164 ft | 435 kts | 292° |
| 2026-05-05 14:48 | 61.22244 | -7.06510 | 34159 ft | 435 kts | 292° |
| 2026-05-05 14:48 | 61.24591 | -7.18075 | 34159 ft | 435 kts | 292° |
| 2026-05-05 14:49 | 61.26930 | -7.29670 | 34156 ft | 435 kts | 292° |
| 2026-05-05 14:49 | 61.29256 | -7.41263 | 34160 ft | 435 kts | 292° |
| 2026-05-05 14:50 | 61.31574 | -7.52880 | 34159 ft | 434 kts | 292° |
| 2026-05-05 14:50 | 61.33880 | -7.64509 | 34167 ft | 434 kts | 291° |
| 2026-05-05 14:51 | 61.36175 | -7.76146 | 34164 ft | 434 kts | 291° |
| 2026-05-05 14:51 | 61.38461 | -7.87810 | 34168 ft | 434 kts | 291° |
| 2026-05-05 14:52 | 61.40736 | -7.99480 | 34168 ft | 434 kts | 291° |
| 2026-05-05 14:52 | 61.43001 | -8.11171 | 34166 ft | 434 kts | 291° |
| 2026-05-05 14:53 | 61.45256 | -8.22879 | 34166 ft | 434 kts | 291° |
| 2026-05-05 14:53 | 61.47500 | -8.34598 | 34170 ft | 434 kts | 291° |
| 2026-05-05 14:54 | 61.49737 | -8.46348 | 34170 ft | 434 kts | 291° |
| 2026-05-05 14:54 | 61.51961 | -8.58101 | 34176 ft | 434 kts | 291° |
| 2026-05-05 14:55 | 61.54174 | -8.69864 | 34180 ft | 434 kts | 291° |
| 2026-05-05 14:55 | 61.56378 | -8.81657 | 34182 ft | 434 kts | 291° |
| 2026-05-05 14:56 | 61.58572 | -8.93459 | 34186 ft | 434 kts | 291° |
| 2026-05-05 14:56 | 61.60757 | -9.05288 | 34180 ft | 434 kts | 290° |
| 2026-05-05 14:57 | 61.62933 | -9.17144 | 34193 ft | 435 kts | 291° |
| 2026-05-05 14:57 | 61.65103 | -9.29038 | 34178 ft | 435 kts | 290° |
| 2026-05-05 14:58 | 61.67276 | -9.41020 | 34185 ft | 435 kts | 290° |
| 2026-05-05 14:58 | 61.69424 | -9.52940 | 34183 ft | 435 kts | 290° |
| 2026-05-05 14:59 | 61.71548 | -9.64794 | 34185 ft | 435 kts | 290° |
| 2026-05-05 14:59 | 61.73674 | -9.76741 | 34194 ft | 435 kts | 290° |
| 2026-05-05 15:00 | 61.75446 | -9.86752 | 34194 ft | 435 kts | 290° |
| 2026-05-05 15:00 | 61.77892 | -10.00666 | 34192 ft | 435 kts | 290° |
| 2026-05-05 15:01 | 61.79983 | -10.12633 | 34185 ft | 434 kts | 290° |
| 2026-05-05 15:01 | 61.82058 | -10.24591 | 34195 ft | 433 kts | 290° |
| 2026-05-05 15:02 | 61.84120 | -10.36549 | 34242 ft | 433 kts | 290° |
| 2026-05-05 15:02 | 61.86165 | -10.48485 | 34209 ft | 435 kts | 290° |
| 2026-05-05 15:03 | 61.88222 | -10.60566 | 34199 ft | 436 kts | 290° |
| 2026-05-05 15:03 | 61.90274 | -10.72701 | 34201 ft | 438 kts | 289° |
| 2026-05-05 15:04 | 61.92321 | -10.84879 | 34182 ft | 438 kts | 290° |
| 2026-05-05 15:04 | 61.94355 | -10.97067 | 34210 ft | 438 kts | 290° |
| 2026-05-05 15:05 | 61.97391 | -11.15407 | 34210 ft | 438 kts | 289° |
| 2026-05-05 15:06 | 61.99400 | -11.27646 | 34213 ft | 438 kts | 289° |
| 2026-05-05 15:06 | 62.01397 | -11.39888 | 34196 ft | 438 kts | 289° |
| 2026-05-05 15:07 | 62.03380 | -11.52133 | 34193 ft | 437 kts | 289° |
| 2026-05-05 15:07 | 62.05353 | -11.64399 | 34201 ft | 438 kts | 289° |
| 2026-05-05 15:08 | 62.07318 | -11.76694 | 34210 ft | 438 kts | 289° |
| 2026-05-05 15:08 | 62.09272 | -11.89011 | 34205 ft | 439 kts | 289° |
| 2026-05-05 15:09 | 62.11219 | -12.01363 | 34208 ft | 439 kts | 289° |
| 2026-05-05 15:09 | 62.13143 | -12.13660 | 34207 ft | 439 kts | 289° |
| 2026-05-05 15:10 | 62.15081 | -12.26128 | 34207 ft | 439 kts | 289° |
| 2026-05-05 15:10 | 62.16998 | -12.38554 | 34206 ft | 440 kts | 289° |
| 2026-05-05 15:11 | 62.18900 | -12.50968 | 34196 ft | 438 kts | 288° |
| 2026-05-05 15:11 | 62.20787 | -12.63365 | 34218 ft | 437 kts | 288° |
| 2026-05-05 15:12 | 62.22657 | -12.75747 | 34216 ft | 436 kts | 288° |
| 2026-05-05 15:12 | 62.24514 | -12.88133 | 34218 ft | 437 kts | 288° |
| 2026-05-05 15:13 | 62.26366 | -13.00564 | 34217 ft | 438 kts | 288° |
| 2026-05-05 15:13 | 62.28212 | -13.13050 | 34214 ft | 440 kts | 288° |
| 2026-05-05 15:14 | 62.29742 | -13.23471 | 34184 ft | 440 kts | 288° |
| 2026-05-05 15:14 | 62.31583 | -13.36098 | 34202 ft | 440 kts | 288° |
| 2026-05-05 15:15 | 62.33388 | -13.48565 | 34211 ft | 439 kts | 288° |
| 2026-05-05 15:15 | 62.35190 | -13.61105 | 34216 ft | 438 kts | 288° |
| 2026-05-05 15:16 | 62.36980 | -13.73657 | 34213 ft | 438 kts | 288° |
| 2026-05-05 15:16 | 62.38755 | -13.86191 | 34214 ft | 437 kts | 288° |
| 2026-05-05 15:17 | 62.40518 | -13.98741 | 34215 ft | 437 kts | 287° |
| 2026-05-05 15:17 | 62.42267 | -14.11286 | 34243 ft | 436 kts | 288° |
| 2026-05-05 15:18 | 62.43990 | -14.23741 | 34222 ft | 436 kts | 287° |
| 2026-05-05 15:18 | 62.45714 | -14.36292 | 34217 ft | 436 kts | 287° |
| 2026-05-05 15:19 | 62.47426 | -14.48856 | 34217 ft | 436 kts | 287° |
| 2026-05-05 15:19 | 62.49125 | -14.61423 | 34222 ft | 436 kts | 287° |
| 2026-05-05 15:20 | 62.50814 | -14.74009 | 34223 ft | 436 kts | 287° |
| 2026-05-05 15:20 | 62.52493 | -14.86623 | 34215 ft | 436 kts | 287° |
| 2026-05-05 15:21 | 62.54159 | -14.99239 | 34214 ft | 436 kts | 287° |
| 2026-05-05 15:21 | 62.55814 | -15.11872 | 34219 ft | 436 kts | 287° |
| 2026-05-05 15:22 | 62.57458 | -15.24523 | 34219 ft | 436 kts | 287° |
| 2026-05-05 15:22 | 62.59090 | -15.37185 | 34237 ft | 436 kts | 287° |
| 2026-05-05 15:23 | 62.60715 | -15.49892 | 34223 ft | 437 kts | 286° |
| 2026-05-05 15:23 | 62.62330 | -15.62620 | 34220 ft | 438 kts | 286° |
| 2026-05-05 15:24 | 62.63926 | -15.75315 | 34223 ft | 438 kts | 286° |
| 2026-05-05 15:24 | 62.65522 | -15.88109 | 34218 ft | 439 kts | 286° |
| 2026-05-05 15:25 | 62.67109 | -16.00940 | 34217 ft | 439 kts | 286° |
| 2026-05-05 15:25 | 62.68684 | -16.13775 | 34217 ft | 439 kts | 286° |
| 2026-05-05 15:26 | 62.70248 | -16.26640 | 34218 ft | 439 kts | 286° |
| 2026-05-05 15:26 | 62.71800 | -16.39513 | 34216 ft | 439 kts | 285° |
| 2026-05-05 15:27 | 62.73329 | -16.52307 | 34217 ft | 439 kts | 285° |
| 2026-05-05 15:27 | 62.74853 | -16.65173 | 34210 ft | 437 kts | 285° |
| 2026-05-05 15:28 | 62.76364 | -16.78028 | 34229 ft | 438 kts | 285° |
| 2026-05-05 15:28 | 62.77865 | -16.90925 | 34221 ft | 439 kts | 285° |
| 2026-05-05 15:29 | 62.79358 | -17.03865 | 34219 ft | 440 kts | 285° |
| 2026-05-05 15:29 | 62.80844 | -17.16857 | 34221 ft | 441 kts | 285° |
| 2026-05-05 15:30 | 62.82320 | -17.29881 | 34222 ft | 442 kts | 284° |
| 2026-05-05 15:30 | 62.83784 | -17.42924 | 34201 ft | 441 kts | 284° |
| 2026-05-05 15:31 | 62.85234 | -17.55963 | 34213 ft | 441 kts | 284° |
| 2026-05-05 15:31 | 62.86671 | -17.69003 | 34222 ft | 440 kts | 284° |
| 2026-05-05 15:32 | 62.88094 | -17.82034 | 34223 ft | 439 kts | 284° |
| 2026-05-05 15:32 | 62.89501 | -17.95043 | 34218 ft | 439 kts | 284° |
| 2026-05-05 15:33 | 62.90903 | -18.08088 | 34221 ft | 440 kts | 284° |
| 2026-05-05 15:33 | 62.92278 | -18.21203 | 34234 ft | 442 kts | 284° |
| 2026-05-05 15:34 | 62.93669 | -18.34389 | 34224 ft | 444 kts | 284° |
| 2026-05-05 15:34 | 62.95056 | -18.47652 | 34228 ft | 447 kts | 284° |
| 2026-05-05 15:35 | 62.96433 | -18.60990 | 34227 ft | 448 kts | 284° |
| 2026-05-05 15:35 | 62.98266 | -18.74057 | 34223 ft | 448 kts | 294° |
| 2026-05-05 15:36 | 63.01119 | -18.86128 | 34226 ft | 448 kts | 303° |
| 2026-05-05 15:36 | 63.04740 | -18.97291 | 34225 ft | 448 kts | 305° |
| 2026-05-05 15:37 | 63.08423 | -19.08365 | 34258 ft | 448 kts | 305° |
| 2026-05-05 15:37 | 63.12079 | -19.19508 | 34060 ft | 450 kts | 305° |
| 2026-05-05 15:37 | 63.13932 | -19.25189 | 33280 ft | 455 kts | 305° |
| 2026-05-05 15:38 | 63.15780 | -19.30784 | 32513 ft | 446 kts | 306° |
| 2026-05-05 15:38 | 63.17624 | -19.36282 | 31630 ft | 444 kts | 304° |
| 2026-05-05 15:38 | 63.19362 | -19.41766 | 30879 ft | 439 kts | 303° |
| 2026-05-05 15:38 | 63.21084 | -19.47275 | 30245 ft | 432 kts | 303° |
| 2026-05-05 15:39 | 63.22812 | -19.52778 | 29458 ft | 426 kts | 303° |
| 2026-05-05 15:39 | 63.24474 | -19.58039 | 28828 ft | 418 kts | 303° |
| 2026-05-05 15:39 | 63.26150 | -19.63321 | 28254 ft | 410 kts | 303° |
| 2026-05-05 15:39 | 63.27779 | -19.68449 | 27675 ft | 402 kts | 303° |
| 2026-05-05 15:40 | 63.29380 | -19.73496 | 27118 ft | 396 kts | 303° |
| 2026-05-05 15:40 | 63.30955 | -19.78468 | 26548 ft | 391 kts | 303° |
| 2026-05-05 15:40 | 63.32507 | -19.83385 | 26013 ft | 385 kts | 302° |
| 2026-05-05 15:40 | 63.34036 | -19.88237 | 25432 ft | 381 kts | 302° |
| 2026-05-05 15:41 | 63.35553 | -19.93067 | 24825 ft | 379 kts | 302° |
| 2026-05-05 15:41 | 63.37054 | -19.97854 | 24286 ft | 374 kts | 302° |
| 2026-05-05 15:41 | 63.38534 | -20.02584 | 23757 ft | 370 kts | 301° |
| 2026-05-05 15:41 | 63.39998 | -20.07274 | 23165 ft | 366 kts | 301° |
| 2026-05-05 15:42 | 63.41441 | -20.11905 | 22646 ft | 361 kts | 301° |
| 2026-05-05 15:42 | 63.42864 | -20.16480 | 22141 ft | 356 kts | 301° |
| 2026-05-05 15:42 | 63.44262 | -20.20986 | 21660 ft | 351 kts | 301° |
| 2026-05-05 15:42 | 63.45640 | -20.25433 | 21187 ft | 346 kts | 301° |
| 2026-05-05 15:43 | 63.47000 | -20.29836 | 20709 ft | 342 kts | 301° |
| 2026-05-05 15:43 | 63.48342 | -20.34194 | 20219 ft | 338 kts | 301° |
| 2026-05-05 15:43 | 63.49677 | -20.38500 | 19780 ft | 334 kts | 301° |
| 2026-05-05 15:43 | 63.50995 | -20.42745 | 19330 ft | 330 kts | 300° |
| 2026-05-05 15:44 | 63.52280 | -20.47000 | 18916 ft | 329 kts | 300° |
| 2026-05-05 15:44 | 63.53567 | -20.51226 | 18447 ft | 329 kts | 300° |
| 2026-05-05 15:44 | 63.54864 | -20.55473 | 17962 ft | 332 kts | 300° |
| 2026-05-05 15:44 | 63.55994 | -20.60001 | 17500 ft | 335 kts | 288° |
| 2026-05-05 15:45 | 63.56629 | -20.65054 | 17089 ft | 340 kts | 283° |
| 2026-05-05 15:45 | 63.57226 | -20.70213 | 16592 ft | 342 kts | 283° |
| 2026-05-05 15:45 | 63.57841 | -20.75337 | 16141 ft | 339 kts | 284° |
| 2026-05-05 15:45 | 63.58457 | -20.80401 | 15690 ft | 334 kts | 284° |
| 2026-05-05 15:46 | 63.59069 | -20.85409 | 15251 ft | 330 kts | 284° |
| 2026-05-05 15:46 | 63.59674 | -20.90358 | 14812 ft | 327 kts | 284° |
| 2026-05-05 15:46 | 63.60272 | -20.95258 | 14381 ft | 324 kts | 284° |
| 2026-05-05 15:46 | 63.60859 | -21.00080 | 13955 ft | 325 kts | 284° |
| 2026-05-05 15:47 | 63.61466 | -21.05073 | 13498 ft | 331 kts | 284° |
| 2026-05-05 15:47 | 63.61870 | -21.08411 | 13203 ft | 337 kts | 284° |
| 2026-05-05 15:47 | 63.62690 | -21.15211 | 12616 ft | 341 kts | 285° |
| 2026-05-05 15:47 | 63.63306 | -21.20354 | 12175 ft | 339 kts | 285° |
| 2026-05-05 15:48 | 63.63909 | -21.25438 | 11730 ft | 334 kts | 285° |
| 2026-05-05 15:48 | 63.64500 | -21.30446 | 11312 ft | 329 kts | 285° |
| 2026-05-05 15:48 | 63.65079 | -21.35337 | 11149 ft | 317 kts | 285° |
| 2026-05-05 15:48 | 63.65633 | -21.40044 | 10990 ft | 305 kts | 285° |
| 2026-05-05 15:49 | 63.66163 | -21.44578 | 10852 ft | 293 kts | 284° |
| 2026-05-05 15:49 | 63.66669 | -21.48931 | 10738 ft | 282 kts | 285° |
| 2026-05-05 15:49 | 63.67155 | -21.53114 | 10618 ft | 270 kts | 285° |
| 2026-05-05 15:49 | 63.67621 | -21.57113 | 10513 ft | 258 kts | 285° |
| 2026-05-05 15:50 | 63.68063 | -21.60928 | 10424 ft | 245 kts | 286° |
| 2026-05-05 15:50 | 63.68483 | -21.64569 | 10305 ft | 238 kts | 287° |
| 2026-05-05 15:50 | 63.68907 | -21.68248 | 10220 ft | 248 kts | 287° |
| 2026-05-05 15:50 | 63.69349 | -21.72082 | 9892 ft | 255 kts | 287° |
| 2026-05-05 15:51 | 63.69793 | -21.75949 | 9587 ft | 253 kts | 287° |
| 2026-05-05 15:51 | 63.70228 | -21.79755 | 9280 ft | 248 kts | 287° |
| 2026-05-05 15:51 | 63.70651 | -21.83471 | 9005 ft | 243 kts | 287° |
| 2026-05-05 15:51 | 63.71077 | -21.87202 | 8728 ft | 250 kts | 286° |
| 2026-05-05 15:52 | 63.71515 | -21.91050 | 8442 ft | 257 kts | 286° |
| 2026-05-05 15:52 | 63.71960 | -21.94978 | 8118 ft | 259 kts | 286° |
| 2026-05-05 15:52 | 63.72403 | -21.98889 | 7812 ft | 256 kts | 286° |
| 2026-05-05 15:52 | 63.72841 | -22.02795 | 7320 ft | 260 kts | 286° |
| 2026-05-05 15:53 | 63.73287 | -22.06751 | 6925 ft | 259 kts | 286° |
| 2026-05-05 15:53 | 63.73727 | -22.10667 | 6610 ft | 256 kts | 285° |
| 2026-05-05 15:53 | 63.74154 | -22.14547 | 6288 ft | 253 kts | 285° |
| 2026-05-05 15:53 | 63.74578 | -22.18363 | 5970 ft | 248 kts | 285° |
| 2026-05-05 15:54 | 63.75000 | -22.22146 | 5684 ft | 251 kts | 285° |
| 2026-05-05 15:54 | 63.75430 | -22.26010 | 5395 ft | 256 kts | 286° |
| 2026-05-05 15:54 | 63.75864 | -22.29932 | 5108 ft | 257 kts | 286° |
| 2026-05-05 15:54 | 63.76291 | -22.33823 | 4822 ft | 251 kts | 286° |
| 2026-05-05 15:55 | 63.76704 | -22.37585 | 4703 ft | 245 kts | 287° |
| 2026-05-05 15:55 | 63.77230 | -22.41302 | 4395 ft | 250 kts | 292° |
| 2026-05-05 15:55 | 63.77844 | -22.44948 | 4162 ft | 244 kts | 293° |
| 2026-05-05 15:55 | 63.78427 | -22.48446 | 3995 ft | 233 kts | 293° |
| 2026-05-05 15:56 | 63.78986 | -22.51848 | 3737 ft | 228 kts | 292° |
| 2026-05-05 15:56 | 63.79525 | -22.55164 | 3445 ft | 221 kts | 292° |
| 2026-05-05 15:56 | 63.80056 | -22.58361 | 3160 ft | 211 kts | 298° |
| 2026-05-05 15:56 | 63.80993 | -22.60639 | 2942 ft | 194 kts | 344° |
| 2026-05-05 15:57 | 63.82256 | -22.60802 | 2775 ft | 177 kts | 7° |
| 2026-05-05 15:57 | 63.83491 | -22.60662 | 2557 ft | 177 kts | 4° |
| 2026-05-05 15:57 | 63.84715 | -22.60574 | 2375 ft | 174 kts | 4° |
| 2026-05-05 15:57 | 63.85903 | -22.60543 | 2148 ft | 168 kts | 3° |